Burbank, Ohio
Current Conditions -  °F | °C
As of 3:56 AM on Monday 20 Oct 2014 (Local Time) from KBJJ Reporting Station
Broken Clouds Broken Clouds  
Wind Chill: 44°   Ceiling: 10000
Heat Index: 46°   Visibility: 10mi
Dew Point: 36°   Wind: 5mph
Humidity: 68%   Direction: 210°SSW
Pressure: 30.01"   Gusts: NA
Location:  40.99°N, 81.99°W
Report Text: KBJJ 200756Z AUTO 21004KT 10SM BKN100 08/02 A3001 RMK AO2 SLP166 T00780022 TSNO
Loading
Personal Weather Stations






























Interactive Weather Map
Tropical Storm Tracking
New forecast layout! Learn more

10-Day Weather Forecast

Advertisements
Track Severe Weather on mobile